Time;durP1;ratioP1;P1;durP2;ratioP2;P2;SDS_P1;SDS_P2;PMS_P1;PMS_P2;Temp;Humidity;BMP_temperature;BMP_pressure;BME280_temperature;BME280_humidity;BME280_pressure;Samples;Min_cycle;Max_cycle;Signal;HPM_P1;HPM_P2
2022/08/02 00:00:47;;;;;;;10.18;5.13;;;;;;;;;;5074334;28;20024;-51
2022/08/02 00:03:13;;;;;;;8.13;4.80;;;;;;;;;;5074200;28;20081;-52
2022/08/02 00:05:39;;;;;;;7.07;4.70;;;;;;;;;;5073323;28;20031;-52
2022/08/02 00:08:05;;;;;;;8.55;4.72;;;;;;;;;;5087719;28;20027;-51
2022/08/02 00:10:32;;;;;;;8.82;5.47;;;;;;;;;;5092788;28;20016;-51
2022/08/02 00:12:58;;;;;;;9.05;4.90;;;;;;;;;;5091274;28;20031;-53
2022/08/02 00:15:24;;;;;;;14.38;5.57;;;;;;;;;;5073009;28;20052;-53
2022/08/02 00:17:50;;;;;;;5.38;4.45;;;;;;;;;;5088068;28;20103;-52
2022/08/02 00:20:16;;;;;;;10.05;4.65;;;;;;;;;;5075871;28;20075;-51
2022/08/02 00:22:42;;;;;;;5.80;5.20;;;;;;;;;;5077675;28;20103;-53
2022/08/02 00:25:09;;;;;;;10.70;4.57;;;;;;;;;;5092795;28;20107;-51
2022/08/02 00:27:35;;;;;;;6.25;4.32;;;;;;;;;;5092485;28;20043;-50
2022/08/02 00:30:01;;;;;;;5.65;4.43;;;;;;;;;;5091140;28;20069;-55
2022/08/02 00:32:27;;;;;;;9.57;4.68;;;;;;;;;;5092432;28;20028;-52
2022/08/02 00:34:53;;;;;;;10.38;4.70;;;;;;;;;;5092578;28;20028;-53
2022/08/02 00:37:19;;;;;;;7.95;5.25;;;;;;;;;;5092408;28;20035;-53
2022/08/02 00:39:45;;;;;;;9.32;4.35;;;;;;;;;;5090547;28;20039;-52
2022/08/02 00:42:13;;;;;;;6.15;5.25;;;;;;;;;;5076715;28;20063;-55
2022/08/02 00:44:39;;;;;;;13.45;5.32;;;;;;;;;;5084625;28;20035;-54
2022/08/02 00:47:05;;;;;;;6.38;5.70;;;;;;;;;;5072210;28;20517;-54
2022/08/02 00:49:31;;;;;;;12.35;5.18;;;;;;;;;;5073305;28;20058;-53
2022/08/02 00:51:57;;;;;;;6.82;5.40;;;;;;;;;;5072203;28;20075;-51
2022/08/02 00:54:23;;;;;;;8.38;5.60;;;;;;;;;;5072011;28;20436;-52
2022/08/02 00:56:49;;;;;;;5.35;4.72;;;;;;;;;;5085299;28;20432;-53
2022/08/02 00:59:16;;;;;;;5.93;4.13;;;;;;;;;;5075947;28;20060;-51
2022/08/02 01:01:42;;;;;;;6.05;4.80;;;;;;;;;;5090602;28;20028;-52
2022/08/02 01:04:09;;;;;;;11.73;4.32;;;;;;;;;;5083207;28;20024;-50
2022/08/02 01:06:35;;;;;;;9.57;4.95;;;;;;;;;;5072952;28;20115;-53
2022/08/02 01:09:02;;;;;;;7.15;4.90;;;;;;;;;;5071959;28;20398;-55
2022/08/02 01:11:28;;;;;;;9.77;4.38;;;;;;;;;;5073165;28;20111;-52
2022/08/02 01:13:54;;;;;;;;;;;;;;;;;;5091508;28;20039;-53
2022/08/02 01:16:22;;;;;;;;;;;;;;;;;;5089198;28;19928;-51
2022/08/02 01:18:52;;;;;;;7.68;4.57;;;;;;;;;;5072019;28;19931;-54
2022/08/02 01:21:41;;;;;;;4.55;4.15;;;;;;;;;;5085174;28;20422;-52
2022/08/02 01:24:14;;;;;;;10.80;4.20;;;;;;;;;;5063829;28;20120;-50
2022/08/02 01:26:44;;;;;;;8.25;4.85;;;;;;;;;;5076771;28;20032;-51
2022/08/02 01:29:28;;;;;;;6.45;4.13;;;;;;;;;;5089701;28;20028;-50
2022/08/02 01:32:08;;;;;;;8.55;3.83;;;;;;;;;;5051570;28;20101;-51
2022/08/02 01:34:40;;;;;;;5.55;3.88;;;;;;;;;;5055789;28;20040;-51
2022/08/02 01:37:18;;;;;;;7.55;4.70;;;;;;;;;;5083132;28;20027;-51
2022/08/02 01:39:46;;;;;;;6.10;4.10;;;;;;;;;;5086450;28;20051;-54
2022/08/02 01:42:13;;;;;;;6.78;3.95;;;;;;;;;;5086489;28;20031;-51
2022/08/02 01:44:41;;;;;;;7.38;4.40;;;;;;;;;;5091654;28;20397;-50
2022/08/02 01:47:13;;;;;;;11.13;4.43;;;;;;;;;;5091323;28;20028;-52
2022/08/02 01:49:41;;;;;;;7.45;4.20;;;;;;;;;;5072173;28;20393;-50
2022/08/02 01:52:20;;;;;;;6.80;4.70;;;;;;;;;;5071312;28;20078;-52
2022/08/02 01:54:51;;;;;;;4.72;4.00;;;;;;;;;;5072547;28;20033;-50
2022/08/02 01:57:19;;;;;;;4.82;4.20;;;;;;;;;;5075268;28;20556;-53
2022/08/02 01:59:45;;;;;;;6.93;4.78;;;;;;;;;;5079523;28;20461;-52
2022/08/02 02:02:12;;;;;;;7.32;4.78;;;;;;;;;;5071535;28;20314;-51
2022/08/02 02:04:39;;;;;;;8.88;5.35;;;;;;;;;;5071313;28;20041;-54
2022/08/02 02:07:05;;;;;;;7.53;4.78;;;;;;;;;;5071152;28;20390;-52
2022/08/02 02:09:35;;;;;;;5.10;4.03;;;;;;;;;;5072064;28;20432;-52
2022/08/02 02:12:02;;;;;;;3.92;3.47;;;;;;;;;;5078269;28;20055;-50
2022/08/02 02:14:29;;;;;;;5.05;4.47;;;;;;;;;;5080804;28;20081;-55
2022/08/02 02:16:57;;;;;;;13.77;4.40;;;;;;;;;;5071133;28;20097;-51
2022/08/02 02:19:23;;;;;;;6.25;3.78;;;;;;;;;;5071675;28;20052;-51
2022/08/02 02:21:49;;;;;;;8.13;4.15;;;;;;;;;;5071085;28;20038;-51
2022/08/02 02:24:15;;;;;;;7.18;3.65;;;;;;;;;;5072525;28;20558;-51
2022/08/02 02:26:42;;;;;;;6.22;4.30;;;;;;;;;;5070970;28;20044;-54
2022/08/02 02:29:09;;;;;;;4.95;4.43;;;;;;;;;;5073498;28;20036;-54
2022/08/02 02:31:36;;;;;;;6.32;4.30;;;;;;;;;;5088267;28;20024;-52
2022/08/02 02:34:03;;;;;;;10.25;4.93;;;;;;;;;;5088629;28;20394;-51
2022/08/02 02:36:30;;;;;;;6.72;4.30;;;;;;;;;;5090721;28;20055;-53
2022/08/02 02:39:01;;;;;;;6.45;4.60;;;;;;;;;;5074670;28;20028;-51
2022/08/02 02:41:27;;;;;;;6.95;4.18;;;;;;;;;;5091622;28;20512;-51
2022/08/02 02:43:55;;;;;;;10.10;4.32;;;;;;;;;;5092906;28;20036;-53
2022/08/02 02:46:21;;;;;;;5.72;4.68;;;;;;;;;;5094685;28;20123;-52
2022/08/02 02:48:47;;;;;;;;;;;;;;;;;;5091734;28;20102;-54
2022/08/02 02:51:14;;;;;;;9.00;4.50;;;;;;;;;;5083761;28;20350;-53
2022/08/02 02:53:40;;;;;;;;;;;;;;;;;;5081213;28;20454;-55
2022/08/02 02:56:06;;;;;;;5.50;4.75;;;;;;;;;;5093072;28;19947;-54
2022/08/02 02:58:32;;;;;;;9.35;4.55;;;;;;;;;;5094697;28;20034;-54
2022/08/02 03:03:44;;;;;;;7.65;5.80;;;;;;;;;;5094790;28;20039;-53
2022/08/02 03:06:10;;;;;;;11.57;5.18;;;;;;;;;;5088514;28;20035;-53
2022/08/02 03:08:36;;;;;;;6.43;5.07;;;;;;;;;;5073843;28;20028;-52
2022/08/02 03:11:02;;;;;;;14.15;5.00;;;;;;;;;;5083183;28;20025;-50
2022/08/02 03:13:28;;;;;;;11.20;5.80;;;;;;;;;;5074284;28;20052;-52
2022/08/02 03:15:54;;;;;;;10.70;5.75;;;;;;;;;;5085257;28;20035;-54
2022/08/02 03:18:34;;;;;;;10.85;5.53;;;;;;;;;;5075171;28;20036;-50
2022/08/02 03:21:01;;;;;;;6.53;5.78;;;;;;;;;;5073999;28;20029;-54
2022/08/02 03:23:27;;;;;;;7.32;5.22;;;;;;;;;;5073638;28;20441;-51
2022/08/02 03:25:53;;;;;;;5.38;4.68;;;;;;;;;;5074091;28;20017;-52
2022/08/02 03:28:19;;;;;;;7.53;4.93;;;;;;;;;;5074618;28;20020;-51
2022/08/02 03:30:45;;;;;;;8.30;5.57;;;;;;;;;;5078053;28;20262;-50
2022/08/02 03:33:11;;;;;;;7.28;5.15;;;;;;;;;;5089467;28;20301;-54
2022/08/02 03:35:38;;;;;;;9.45;6.13;;;;;;;;;;5087395;28;20025;-52
2022/08/02 03:38:04;;;;;;;10.45;6.97;;;;;;;;;;5078211;28;20028;-52
2022/08/02 03:40:31;;;;;;;9.15;5.25;;;;;;;;;;5085505;28;20025;-51
2022/08/02 03:42:57;;;;;;;7.93;3.88;;;;;;;;;;5074350;28;20025;-51
2022/08/02 03:45:24;;;;;;;7.20;3.40;;;;;;;;;;5073603;28;20036;-52
2022/08/02 03:47:51;;;;;;;9.55;2.92;;;;;;;;;;5077309;28;20458;-52
2022/08/02 03:50:18;;;;;;;7.00;2.38;;;;;;;;;;5092351;28;20323;-55
2022/08/02 03:52:44;;;;;;;6.72;1.40;;;;;;;;;;5083882;28;20386;-52
2022/08/02 03:55:11;;;;;;;11.90;2.28;;;;;;;;;;5073365;28;20103;-50
2022/08/02 03:57:38;;;;;;;12.23;2.28;;;;;;;;;;5073246;28;20048;-50
2022/08/02 04:00:05;;;;;;;6.88;1.45;;;;;;;;;;5092334;28;20460;-53
2022/08/02 04:02:31;;;;;;;;;;;;;;;;;;5054834;28;20029;-54
2022/08/02 04:04:57;;;;;;;9.73;1.42;;;;;;;;;;5051962;28;19962;-53
2022/08/02 04:07:23;;;;;;;8.68;1.35;;;;;;;;;;5053107;28;20025;-51
2022/08/02 04:09:49;;;;;;;13.75;2.05;;;;;;;;;;5053071;28;20028;-54
2022/08/02 04:12:15;;;;;;;9.63;2.00;;;;;;;;;;5051791;28;20128;-55
2022/08/02 04:14:42;;;;;;;8.80;1.42;;;;;;;;;;5053125;28;20030;-53
2022/08/02 04:17:09;;;;;;;8.23;1.40;;;;;;;;;;5053015;28;20048;-51
2022/08/02 04:19:54;;;;;;;7.35;1.02;;;;;;;;;;5052807;28;20032;-51
2022/08/02 04:22:27;;;;;;;11.57;2.05;;;;;;;;;;5051917;28;20410;-52
2022/08/02 04:24:55;;;;;;;9.38;1.40;;;;;;;;;;5051505;28;20401;-51
2022/08/02 04:27:22;;;;;;;4.32;0.98;;;;;;;;;;5052708;28;20029;-50
2022/08/02 04:29:48;;;;;;;7.13;1.20;;;;;;;;;;5052762;28;20051;-50
2022/08/02 04:32:15;;;;;;;5.32;1.23;;;;;;;;;;5052733;28;20029;-50
2022/08/02 04:34:42;;;;;;;5.25;1.10;;;;;;;;;;5052621;28;20502;-51
2022/08/02 04:37:08;;;;;;;11.65;1.60;;;;;;;;;;5052536;28;20029;-50
2022/08/02 04:39:34;;;;;;;3.83;0.90;;;;;;;;;;5052501;28;20484;-51
2022/08/02 04:42:00;;;;;;;6.53;1.30;;;;;;;;;;5052518;28;20270;-50
2022/08/02 04:44:27;;;;;;;8.73;1.10;;;;;;;;;;5052451;28;20029;-50
2022/08/02 04:46:54;;;;;;;2.90;0.90;;;;;;;;;;5052562;28;20247;-50
2022/08/02 04:49:20;;;;;;;6.38;1.25;;;;;;;;;;5052353;28;20021;-54
2022/08/02 04:51:46;;;;;;;2.00;1.00;;;;;;;;;;5052707;28;20029;-52
2022/08/02 04:54:12;;;;;;;5.13;1.50;;;;;;;;;;5052354;28;20255;-50
2022/08/02 04:56:39;;;;;;;8.38;0.98;;;;;;;;;;5052194;28;20657;-52
2022/08/02 04:59:05;;;;;;;2.15;0.68;;;;;;;;;;5052115;28;20033;-53
2022/08/02 05:01:31;;;;;;;3.40;0.85;;;;;;;;;;5052241;28;20025;-51
2022/08/02 05:03:57;;;;;;;3.73;1.03;;;;;;;;;;5051878;28;20107;-50
2022/08/02 05:06:23;;;;;;;2.55;0.88;;;;;;;;;;5051978;28;20255;-50
2022/08/02 05:08:49;;;;;;;3.85;0.90;;;;;;;;;;5052038;28;20017;-51
2022/08/02 05:11:16;;;;;;;5.00;0.70;;;;;;;;;;5051997;28;20052;-52
2022/08/02 05:13:42;;;;;;;7.43;0.87;;;;;;;;;;5051936;28;20048;-51
2022/08/02 05:16:08;;;;;;;8.55;0.82;;;;;;;;;;5051872;28;20259;-50
2022/08/02 05:18:34;;;;;;;9.82;0.70;;;;;;;;;;5052063;28;20459;-50
2022/08/02 05:21:00;;;;;;;4.57;0.63;;;;;;;;;;5051815;28;20479;-53
2022/08/02 05:23:26;;;;;;;5.35;1.13;;;;;;;;;;5051783;28;20309;-52
2022/08/02 05:25:52;;;;;;;4.63;0.73;;;;;;;;;;5051885;28;20053;-50
2022/08/02 05:28:18;;;;;;;1.75;0.50;;;;;;;;;;5051577;28;20025;-51
2022/08/02 05:30:44;;;;;;;3.40;0.67;;;;;;;;;;5051735;28;20021;-51
2022/08/02 05:33:10;;;;;;;3.37;0.70;;;;;;;;;;5051695;28;20335;-50
2022/08/02 05:35:36;;;;;;;3.63;0.83;;;;;;;;;;5051687;28;20351;-51
2022/08/02 05:38:02;;;;;;;4.80;1.75;;;;;;;;;;5051733;28;20025;-51
2022/08/02 05:40:28;;;;;;;5.13;1.00;;;;;;;;;;5051664;28;20027;-51
2022/08/02 05:42:55;;;;;;;11.95;0.85;;;;;;;;;;5051634;28;20104;-50
2022/08/02 05:45:21;;;;;;;5.47;0.85;;;;;;;;;;5051535;28;20037;-51
2022/08/02 05:47:47;;;;;;;5.28;0.80;;;;;;;;;;5049994;28;20484;-52
2022/08/02 05:50:13;;;;;;;6.40;0.73;;;;;;;;;;5051399;28;20021;-51
2022/08/02 05:52:49;;;;;;;2.97;0.73;;;;;;;;;;5051236;28;20298;-51
2022/08/02 05:55:17;;;;;;;5.90;0.95;;;;;;;;;;5051379;28;20645;-51
2022/08/02 05:58:01;;;;;;;5.32;1.27;;;;;;;;;;5051285;28;20449;-52
2022/08/02 06:00:30;;;;;;;6.72;1.30;;;;;;;;;;5051429;28;20028;-52
2022/08/02 06:03:18;;;;;;;3.95;1.00;;;;;;;;;;5051289;28;20398;-51
2022/08/02 06:05:59;;;;;;;3.63;0.90;;;;;;;;;;5050004;28;20120;-51
2022/08/02 06:08:29;;;;;;;7.68;0.85;;;;;;;;;;5051379;28;20021;-54
2022/08/02 06:10:56;;;;;;;3.92;0.80;;;;;;;;;;5051295;28;20032;-51
2022/08/02 06:13:23;;;;;;;7.22;0.95;;;;;;;;;;5051726;28;20033;-50
2022/08/02 06:15:49;;;;;;;;;;;;;;;;;;5054617;28;20107;-50
2022/08/02 06:18:15;;;;;;;2.50;0.73;;;;;;;;;;5055174;28;19948;-51
2022/08/02 06:20:42;;;;;;;8.27;1.52;;;;;;;;;;5055537;28;20025;-50
2022/08/02 06:23:08;;;;;;;6.07;0.80;;;;;;;;;;5055322;28;20029;-51
2022/08/02 06:25:35;;;;;;;3.88;0.88;;;;;;;;;;5055519;28;20386;-52
2022/08/02 06:28:02;;;;;;;13.75;2.00;;;;;;;;;;5055087;28;20064;-51
2022/08/02 06:30:29;;;;;;;10.63;2.20;;;;;;;;;;5055383;28;20024;-53
2022/08/02 06:32:55;;;;;;;8.25;0.85;;;;;;;;;;5055112;28;20114;-52
2022/08/02 06:35:21;;;;;;;7.95;1.25;;;;;;;;;;5055222;28;20024;-51
2022/08/02 06:37:51;;;;;;;4.40;0.90;;;;;;;;;;5054845;28;20033;-51
2022/08/02 06:40:17;;;;;;;4.90;1.08;;;;;;;;;;5054800;28;20460;-54
2022/08/02 06:42:47;;;;;;;8.40;1.27;;;;;;;;;;5054791;28;20068;-51
2022/08/02 06:45:14;;;;;;;6.32;1.15;;;;;;;;;;5054644;28;20025;-53
2022/08/02 06:47:40;;;;;;;9.55;0.82;;;;;;;;;;5054669;28;20483;-52
2022/08/02 06:50:06;;;;;;;4.90;1.20;;;;;;;;;;5054722;28;20095;-55
2022/08/02 06:52:33;;;;;;;5.57;1.40;;;;;;;;;;5053296;28;20115;-51
2022/08/02 06:55:00;;;;;;;8.73;0.80;;;;;;;;;;5054632;28;20086;-52
2022/08/02 06:57:27;;;;;;;6.70;1.15;;;;;;;;;;5054484;28;20032;-52
2022/08/02 06:59:53;;;;;;;5.72;0.95;;;;;;;;;;5053090;28;20052;-55
2022/08/02 07:02:19;;;;;;;2.85;0.70;;;;;;;;;;5054412;28;20087;-51
2022/08/02 07:04:45;;;;;;;4.63;1.02;;;;;;;;;;5054323;28;20029;-51
2022/08/02 07:07:11;;;;;;;8.07;0.93;;;;;;;;;;5053020;28;20107;-54
2022/08/02 07:09:37;;;;;;;9.10;1.30;;;;;;;;;;5054262;28;20255;-53
2022/08/02 07:12:03;;;;;;;10.13;1.07;;;;;;;;;;5054709;28;20258;-53
2022/08/02 07:14:29;;;;;;;8.45;1.00;;;;;;;;;;5054173;28;20275;-50
2022/08/02 07:16:55;;;;;;;3.65;1.10;;;;;;;;;;5054075;28;20517;-55
2022/08/02 07:19:21;;;;;;;5.30;0.80;;;;;;;;;;5054144;28;20025;-50
2022/08/02 07:21:47;;;;;;;4.70;0.90;;;;;;;;;;5054011;28;20028;-52
2022/08/02 07:24:13;;;;;;;6.78;0.60;;;;;;;;;;5053939;28;20040;-51
2022/08/02 07:26:39;;;;;;;7.70;0.90;;;;;;;;;;5053532;28;20071;-51
2022/08/02 07:29:06;;;;;;;4.32;1.20;;;;;;;;;;5053919;28;20028;-51
2022/08/02 07:31:32;;;;;;;9.88;1.23;;;;;;;;;;5053948;28;20484;-51
2022/08/02 07:33:58;;;;;;;3.37;1.40;;;;;;;;;;5053926;28;20029;-54
2022/08/02 07:36:24;;;;;;;2.55;1.08;;;;;;;;;;5053662;28;20025;-52
2022/08/02 07:38:50;;;;;;;7.70;1.48;;;;;;;;;;5054179;28;20025;-53
2022/08/02 07:41:16;;;;;;;5.83;1.20;;;;;;;;;;5053741;28;20083;-51
2022/08/02 07:43:42;;;;;;;1.93;0.80;;;;;;;;;;5053590;28;20389;-50
2022/08/02 07:46:08;;;;;;;1.73;0.70;;;;;;;;;;5053521;28;20286;-54
2022/08/02 07:48:34;;;;;;;2.57;1.00;;;;;;;;;;5053536;28;20252;-52
2022/08/02 07:51:00;;;;;;;5.03;1.00;;;;;;;;;;5053340;28;20268;-50
2022/08/02 07:53:26;;;;;;;11.05;1.10;;;;;;;;;;5053923;28;20032;-51
2022/08/02 07:55:52;;;;;;;7.55;1.27;;;;;;;;;;5053489;28;20493;-53
2022/08/02 07:58:18;;;;;;;4.18;0.95;;;;;;;;;;5053145;28;20506;-53
2022/08/02 08:00:44;;;;;;;6.93;1.42;;;;;;;;;;5053336;28;20032;-51
2022/08/02 08:03:10;;;;;;;7.55;1.27;;;;;;;;;;5053325;28;20029;-51
2022/08/02 08:05:36;;;;;;;6.03;0.95;;;;;;;;;;5053267;28;20029;-51
2022/08/02 08:08:03;;;;;;;2.60;0.85;;;;;;;;;;5053019;28;20035;-51
2022/08/02 08:10:29;;;;;;;3.30;1.02;;;;;;;;;;5053256;28;20025;-52
2022/08/02 08:12:55;;;;;;;6.22;1.00;;;;;;;;;;5053153;28;20025;-51
2022/08/02 08:15:21;;;;;;;5.57;1.00;;;;;;;;;;5053164;28;20033;-53
2022/08/02 08:17:47;;;;;;;3.90;1.67;;;;;;;;;;5052995;28;20482;-50
2022/08/02 08:20:13;;;;;;;2.78;1.45;;;;;;;;;;5052994;28;20462;-53
2022/08/02 08:22:39;;;;;;;4.03;1.40;;;;;;;;;;5052796;28;20500;-50
2022/08/02 08:25:05;;;;;;;3.20;0.90;;;;;;;;;;5052934;28;20029;-55
2022/08/02 08:27:31;;;;;;;7.80;1.00;;;;;;;;;;5052674;28;20017;-52
2022/08/02 08:29:57;;;;;;;3.72;0.93;;;;;;;;;;5052977;28;20036;-55
2022/08/02 08:32:23;;;;;;;6.30;1.35;;;;;;;;;;5052796;28;20053;-54
2022/08/02 08:34:50;;;;;;;7.20;2.72;;;;;;;;;;5052708;28;20028;-50
2022/08/02 08:37:16;;;;;;;16.48;2.38;;;;;;;;;;5051855;28;20033;-52
2022/08/02 08:39:42;;;;;;;17.05;1.75;;;;;;;;;;5052640;28;20036;-55
2022/08/02 08:42:08;;;;;;;3.85;1.25;;;;;;;;;;5052567;28;20100;-51
2022/08/02 08:44:35;;;;;;;4.45;1.23;;;;;;;;;;5052441;28;20028;-52
2022/08/02 08:47:03;;;;;;;5.00;1.52;;;;;;;;;;5052478;28;20045;-55
2022/08/02 08:49:33;;;;;;;3.85;0.90;;;;;;;;;;5052339;28;20393;-50
2022/08/02 08:52:02;;;;;;;6.90;1.10;;;;;;;;;;5052199;28;20445;-50
2022/08/02 08:54:29;;;;;;;1.80;0.90;;;;;;;;;;5052315;28;20029;-50
2022/08/02 08:56:55;;;;;;;1.75;0.80;;;;;;;;;;5052341;28;20052;-50
2022/08/02 08:59:22;;;;;;;1.80;1.10;;;;;;;;;;5052214;28;20086;-53
2022/08/02 09:01:49;;;;;;;2.92;1.38;;;;;;;;;;5052114;28;20048;-51
2022/08/02 09:04:15;;;;;;;1.63;0.90;;;;;;;;;;5052061;28;20032;-49
2022/08/02 09:06:41;;;;;;;2.53;0.75;;;;;;;;;;5052010;28;20017;-52
2022/08/02 09:09:08;;;;;;;1.65;1.20;;;;;;;;;;5052039;28;20025;-54
2022/08/02 09:11:34;;;;;;;4.25;1.73;;;;;;;;;;5052128;28;20495;-50
2022/08/02 09:14:01;;;;;;;1.27;0.70;;;;;;;;;;5052018;28;20029;-50
2022/08/02 09:16:27;;;;;;;1.50;1.00;;;;;;;;;;5051868;28;20060;-50
2022/08/02 09:18:54;;;;;;;1.48;1.15;;;;;;;;;;5052054;28;20029;-52
2022/08/02 09:21:20;;;;;;;3.30;1.13;;;;;;;;;;5052270;28;20021;-55
2022/08/02 09:23:47;;;;;;;5.68;1.13;;;;;;;;;;5051738;28;20033;-51
2022/08/02 09:26:20;;;;;;;6.65;1.10;;;;;;;;;;5051691;28;20017;-50
2022/08/02 09:28:48;;;;;;;6.03;1.45;;;;;;;;;;5051742;28;20033;-51
2022/08/02 09:31:14;;;;;;;1.13;0.95;;;;;;;;;;5051652;28;20028;-51
2022/08/02 09:33:41;;;;;;;1.55;1.02;;;;;;;;;;5051712;28;20028;-52
2022/08/02 09:36:09;;;;;;;4.35;1.05;;;;;;;;;;5051514;28;20059;-54
2022/08/02 09:38:36;;;;;;;1.83;0.93;;;;;;;;;;5051573;28;20033;-50
2022/08/02 09:41:02;;;;;;;3.72;1.60;;;;;;;;;;5051559;28;20032;-52
2022/08/02 09:43:42;;;;;;;1.55;0.90;;;;;;;;;;5051488;28;20104;-51
2022/08/02 09:46:11;;;;;;;4.15;0.82;;;;;;;;;;5051373;28;20491;-50
2022/08/02 09:48:45;;;;;;;11.98;1.50;;;;;;;;;;5051349;28;20028;-51
2022/08/02 09:51:12;;;;;;;3.25;0.98;;;;;;;;;;5051383;28;20499;-54
2022/08/02 09:53:38;;;;;;;4.78;1.00;;;;;;;;;;5051568;28;20037;-50
2022/08/02 09:56:04;;;;;;;7.22;1.48;;;;;;;;;;5051381;28;20074;-50
2022/08/02 09:58:30;;;;;;;2.15;1.30;;;;;;;;;;5051198;28;20487;-51
2022/08/02 10:01:00;;;;;;;9.75;1.90;;;40.90;27.20;;;;;;5051354;28;20100;-50
2022/08/02 10:03:26;;;;;;;9.90;1.80;;;29.80;48.60;;;;;;5051367;28;20036;-51
2022/08/02 10:05:54;;;;;;;4.80;1.30;;;29.50;48.50;;;;;;5051685;28;20029;-51
2022/08/02 10:08:20;;;;;;;3.85;0.98;;;;;;;;;;5051224;28;20510;-50
2022/08/02 10:10:47;;;;;;;4.80;1.45;;;;;;;;;;5051194;28;20347;-53
2022/08/02 10:13:14;;;;;;;3.55;1.13;;;29.50;47.70;;;;;;5051470;28;20025;-50
2022/08/02 10:15:40;;;;;;;2.92;1.30;;;29.40;47.60;;;;;;5051367;28;20503;-53
2022/08/02 10:18:07;;;;;;;5.13;1.50;;;;;;;;;;5051130;28;20078;-52
2022/08/02 10:20:40;;;;;;;7.50;1.30;;;;;;;;;;5051173;28;20032;-52
2022/08/02 10:23:07;;;;;;;3.53;1.10;;;;;;;;;;5051161;28;20029;-54
2022/08/02 10:25:36;;;;;;;3.80;1.08;;;;;;;;;;5051122;28;20033;-51
2022/08/02 10:28:02;;;;;;;7.75;1.60;;;;;;;;;;5051018;28;20028;-50
2022/08/02 10:30:29;;;;;;;2.80;1.23;;;;;;;;;;5049825;28;20604;-51
2022/08/02 10:32:56;;;;;;;6.32;1.45;;;;;;;;;;5051286;28;20103;-51
2022/08/02 10:35:23;;;;;;;2.20;1.20;;;;;;;;;;5051248;28;20032;-50
2022/08/02 10:37:52;;;;;;;2.75;1.58;;;;;;;;;;5050999;28;20033;-50
2022/08/02 10:40:27;;;;;;;2.33;1.42;;;;;;;;;;5051192;28;20029;-50
2022/08/02 10:42:54;;;;;;;4.32;0.98;;;;;;;;;;5051654;28;20025;-51
2022/08/02 10:45:22;;;;;;;1.92;1.10;;;;;;;;;;5051018;28;20061;-50
2022/08/02 10:48:04;;;;;;;5.72;1.20;;;;;;;;;;5050893;28;20071;-55
2022/08/02 10:50:45;;;;;;;3.55;1.10;;;;;;;;;;5050709;28;20018;-51
2022/08/02 10:53:30;;;;;;;12.75;1.48;;;;;;;;;;5074289;23;20040;-53
2022/08/02 10:56:02;;;;;;;6.93;1.17;;;;;;;;;;5069582;28;20382;-52
2022/08/02 10:58:32;;;;;;;4.05;1.00;;;;;;;;;;5070845;28;20020;-53
2022/08/02 11:01:02;;;;;;;3.53;1.10;;;;;;;;;;5072159;28;20023;-50
2022/08/02 11:03:28;;;;;;;31.23;2.53;;;;;;;;;;5054408;28;21900;-51
2022/08/02 11:06:01;;;;;;;1.35;1.00;;;;;;;;;;5036542;28;20025;-51
2022/08/02 11:08:27;;;;;;;2.78;1.13;;;;;;;;;;5054241;28;20017;-50
2022/08/02 11:10:59;;;;;;;3.40;0.90;;;;;;;;;;5054449;28;20025;-54
2022/08/02 11:13:25;;;;;;;4.25;1.00;;;;;;;;;;5054312;28;20055;-52
2022/08/02 11:15:52;;;;;;;5.15;1.65;;;;;;;;;;5054315;28;20399;-54
2022/08/02 11:18:19;;;;;;;3.50;1.10;;;;;;;;;;5053937;28;20036;-53
2022/08/02 11:20:45;;;;;;;7.07;1.00;;;;;;;;;;5054210;28;20079;-50
2022/08/02 11:23:40;;;;;;;4.45;1.52;;;;;;;;;;5054030;28;20044;-52
2022/08/02 11:26:25;;;;;;;3.67;1.25;;;;;;;;;;5040983;28;20398;-53
2022/08/02 11:28:51;;;;;;;3.88;1.23;;;;;;;;;;5054046;28;20098;-51
2022/08/02 11:31:17;;;;;;;1.85;0.93;;;;;;;;;;5054036;28;20025;-50
2022/08/02 11:33:43;;;;;;;3.75;1.15;;;;;;;;;;5054024;28;20028;-54
2022/08/02 11:36:10;;;;;;;5.80;0.85;;;;;;;;;;5054154;28;20056;-51
2022/08/02 11:38:36;;;;;;;3.03;1.00;;;;;;;;;;5052467;28;20028;-53
2022/08/02 11:41:02;;;;;;;1.15;0.82;;;29.40;48.20;;;;;;5053718;28;20025;-53
2022/08/02 11:43:30;;;;;;;2.65;0.90;;;;;;;;;;5053765;28;20090;-52
2022/08/02 11:45:56;;;;;;;4.90;0.90;;;;;;;;;;5053657;28;20025;-53
2022/08/02 11:48:32;;;;;;;5.63;0.98;;;;;;;;;;5053486;28;20029;-51
2022/08/02 11:51:02;;;;;;;3.30;1.05;;;;;;;;;;5053565;28;20017;-52
2022/08/02 11:53:28;;;;;;;3.30;0.80;;;;;;;;;;5053472;28;20036;-52
2022/08/02 11:55:56;;;;;;;3.97;0.95;;;;;;;;;;5053546;28;20033;-52
2022/08/02 11:58:22;;;;;;;1.67;0.88;;;;;;;;;;5053272;28;20029;-51
2022/08/02 12:00:48;;;;;;;11.48;1.20;;;;;;;;;;5053467;28;20070;-51
2022/08/02 12:03:14;;;;;;;3.55;1.35;;;;;;;;;;5053288;28;20025;-52
2022/08/02 12:05:40;;;;;;;2.67;0.80;;;;;;;;;;5053368;28;20171;-53
2022/08/02 12:08:07;;;;;;;1.10;0.80;;;;;;;;;;5053023;28;20029;-52
2022/08/02 12:10:33;;;;;;;4.50;1.38;;;;;;;;;;5053249;28;20033;-51
2022/08/02 12:13:00;;;;;;;5.88;0.80;;;;;;;;;;5052227;28;20025;-51
2022/08/02 12:15:32;;;;;;;1.35;0.90;;;;;;;;;;5053390;28;20025;-50
2022/08/02 12:20:53;;;;;;;3.38;1.00;;;;;;;;;;5033040;28;20044;-51
2022/08/02 12:23:19;;;;;;;3.15;1.10;;;;;;;;;;5056013;28;20536;-50
2022/08/02 12:25:45;;;;;;;4.38;0.85;;;;;;;;;;5063907;28;20031;-52
2022/08/02 12:28:16;;;;;;;3.60;1.30;;;;;;;;;;5052678;28;20025;-52
2022/08/02 12:30:49;;;;;;;1.77;1.00;;;;;;;;;;5052943;28;20441;-54
2022/08/02 12:33:15;;;;;;;4.25;1.10;;;;;;;;;;5052399;28;20062;-55
2022/08/02 12:35:41;;;;;;;2.38;0.68;;;;;;;;;;5052728;28;20029;-52
2022/08/02 12:38:10;;;;;;;8.32;1.15;;;;;;;;;;5052579;28;20502;-53
2022/08/02 12:40:36;;;;;;;9.38;1.60;;;;;;;;;;5052663;28;20094;-51
2022/08/02 12:43:05;;;;;;;1.77;0.98;;;;;;;;;;5052542;28;20021;-51
2022/08/02 12:45:32;;;;;;;1.95;0.80;;;;;;;;;;5052420;28;20080;-50
2022/08/02 12:47:59;;;;;;;1.50;0.90;;;;;;;;;;5069552;28;20066;-50
2022/08/02 12:50:25;;;;;;;6.25;1.25;;;;;;;;;;5055994;28;20108;-53
2022/08/02 12:53:02;;;;;;;4.72;1.00;;;;;;;;;;5052498;28;20441;-53
2022/08/02 12:55:28;;;;;;;4.63;1.00;;;;;;;;;;5052508;28;20056;-50
2022/08/02 12:57:54;;;;;;;1.83;1.00;;;;;;;;;;5053850;28;20032;-54
2022/08/02 13:00:41;;;;;;;0.82;0.77;;;;;;;;;;5070268;28;20028;-52
2022/08/02 13:03:07;;;;;;;3.28;1.13;;;;;;;;;;5072207;28;20432;-54
2022/08/02 13:05:34;;;;;;;2.03;1.10;;;;;;;;;;5069230;28;20059;-50
2022/08/02 13:08:01;;;;;;;4.75;0.90;;;;;;;;;;5051865;28;20399;-50
2022/08/02 13:10:27;;;;;;;21.02;1.75;;;;;;;;;;5060565;28;20025;-51
2022/08/02 13:12:53;;;;;;;2.20;0.90;;;;;;;;;;5057015;28;20109;-51
2022/08/02 13:15:21;;;;;;;2.53;0.90;;;;;;;;;;5071889;28;20028;-54
2022/08/02 13:17:47;;;;;;;5.60;1.00;;;;;;;;;;5071863;28;20024;-51
2022/08/02 13:20:14;;;;;;;3.65;1.10;;;;;;;;;;5060307;28;20525;-50
2022/08/02 13:22:40;;;;;;;;;;;;;;;;;;5065069;28;20039;-52
2022/08/02 13:25:06;;;;;;;2.88;0.80;;;;;;;;;;5050176;28;19909;-53
2022/08/02 13:27:32;;;;;;;1.80;0.90;;;;;;;;;;5051633;28;20100;-54
2022/08/02 13:29:59;;;;;;;2.35;0.90;;;;;;;;;;5059669;28;20051;-51
2022/08/02 13:32:27;;;;;;;16.45;2.00;;;;;;;;;;5071389;28;20027;-50
2022/08/02 13:34:54;;;;;;;4.50;0.90;;;;;;;;;;5061820;28;20391;-50
2022/08/02 13:37:20;;;;;;;3.88;1.08;;;;;;;;;;5047963;28;20036;-50
2022/08/02 13:39:46;;;;;;;0.85;0.85;;;;;;;;;;5051578;28;20033;-52
2022/08/02 13:42:12;;;;;;;0.90;0.90;;;;;;;;;;5051461;28;20033;-49
2022/08/02 13:44:38;;;;;;;6.03;0.90;;;;;;;;;;5051741;28;20068;-50
2022/08/02 13:47:04;;;;;;;2.60;1.08;;;30.90;43.70;;;;;;5061187;28;20498;-49
2022/08/02 13:49:30;;;;;;;0.88;0.88;;;;;;;;;;5050237;28;20104;-54
2022/08/02 13:51:56;;;;;;;18.20;1.95;;;;;;;;;;5039705;28;20083;-51
2022/08/02 13:54:22;;;;;;;3.92;2.10;;;;;;;;;;5036174;28;20510;-55
2022/08/02 13:56:49;;;;;;;4.05;1.10;;;;;;;;;;5053443;28;20399;-54
2022/08/02 13:59:15;;;;;;;6.80;1.42;;;;;;;;;;5051689;28;20036;-56
2022/08/02 14:01:41;;;;;;;2.08;0.98;;;;;;;;;;5057220;28;20032;-55
2022/08/02 14:04:07;;;;;;;4.13;1.02;;;;;;;;;;5071465;28;20075;-56
2022/08/02 14:06:33;;;;;;;6.35;1.30;;;;;;;;;;5070629;28;20032;-54
2022/08/02 14:08:59;;;;;;;3.53;1.10;;;;;;;;;;5062348;28;20094;-56
2022/08/02 14:11:25;;;;;;;3.78;1.40;;;;;;;;;;5068188;28;20440;-56
2022/08/02 14:13:51;;;;;;;6.80;3.38;;;;;;;;;;5064356;28;20071;-56
2022/08/02 14:16:17;;;;;;;6.47;2.65;;;;;;;;;;5070966;28;20082;-55
2022/08/02 14:18:43;;;;;;;2.25;1.10;;;;;;;;;;5056345;28;20040;-57
2022/08/02 14:21:09;;;;;;;9.13;1.73;;;;;;;;;;5050908;28;20025;-55
2022/08/02 14:23:35;;;;;;;2.22;1.02;;;;;;;;;;5051027;28;20029;-54
2022/08/02 14:26:04;;;;;;;2.25;1.30;;;;;;;;;;5062747;28;20458;-56
2022/08/02 14:28:30;;;;;;;3.53;1.17;;;;;;;;;;5056719;28;20426;-54
2022/08/02 14:30:56;;;;;;;7.80;1.50;;;;;;;;;;5054707;28;20029;-54
2022/08/02 14:33:22;;;;;;;2.22;1.08;;;;;;;;;;5051017;28;20028;-56
2022/08/02 14:35:48;;;;;;;3.65;1.13;;;;;;;;;;5051785;28;20025;-54
2022/08/02 14:38:17;;;;;;;5.38;1.00;;;;;;;;;;5064585;28;20025;-50
2022/08/02 14:40:44;;;;;;;3.03;1.40;;;;;;;;;;5073177;28;20024;-53
2022/08/02 14:43:10;;;;;;;2.33;0.90;;;;;;;;;;5046902;28;20036;-55
2022/08/02 14:45:36;;;;;;;4.03;1.17;;;;;;;;;;5033718;28;20031;-55
2022/08/02 14:48:02;;;;;;;3.38;1.52;;;;;;;;;;5059853;28;20056;-53